BLY2039 EGGD-EGHQ
Flight info
| Callsign | BLY2039 |
|---|---|
| Flight time | 0h 27m |
| Altitude | 8000 |
| Route | EXMOR DCT NQY |
| Aircraft | A320/M-SDE3FGHIRWY/LB1 |
Departure
| Time | 2026-04-21 18:05 |
|---|---|
| Airport | Bristol Airport (EGGD) |
Arrival
| Time | 2026-04-21 18:32 |
|---|---|
| Airport | Cornwall Airport Newquay (EGHQ) |
| Time | Latitude | Longitude | Altitude | Speed | Heading |
|---|---|---|---|---|---|
| 2026-04-21 17:48 | 51.38525 | -2.71763 | 616 ft | 0 kts | 88° |
| 2026-04-21 18:00 | 51.38524 | -2.71774 | 614 ft | 2 kts | 116° |
| 2026-04-21 18:00 | 51.38533 | -2.71796 | 621 ft | 2 kts | 117° |
| 2026-04-21 18:00 | 51.38538 | -2.71814 | 626 ft | 1 kts | 90° |
| 2026-04-21 18:00 | 51.38538 | -2.71816 | 626 ft | 0 kts | 89° |
| 2026-04-21 18:01 | 51.38538 | -2.71812 | 626 ft | 0 kts | 89° |
| 2026-04-21 18:01 | 51.38537 | -2.71810 | 626 ft | 1 kts | 107° |
| 2026-04-21 18:02 | 51.38531 | -2.71798 | 622 ft | 0 kts | 115° |
| 2026-04-21 18:02 | 51.38512 | -2.71797 | 615 ft | 11 kts | 181° |
| 2026-04-21 18:02 | 51.38435 | -2.71902 | 616 ft | 16 kts | 253° |
| 2026-04-21 18:02 | 51.38428 | -2.72085 | 620 ft | 17 kts | 266° |
| 2026-04-21 18:03 | 51.38421 | -2.72288 | 615 ft | 19 kts | 266° |
| 2026-04-21 18:03 | 51.38412 | -2.72508 | 618 ft | 21 kts | 266° |
| 2026-04-21 18:03 | 51.38403 | -2.72747 | 619 ft | 22 kts | 266° |
| 2026-04-21 18:03 | 51.38392 | -2.72992 | 616 ft | 20 kts | 266° |
| 2026-04-21 18:04 | 51.38383 | -2.73224 | 616 ft | 21 kts | 262° |
| 2026-04-21 18:04 | 51.38280 | -2.73341 | 617 ft | 20 kts | 178° |
| 2026-04-21 18:04 | 51.38219 | -2.73180 | 624 ft | 20 kts | 91° |
| 2026-04-21 18:04 | 51.38243 | -2.72564 | 613 ft | 98 kts | 86° |
| 2026-04-21 18:05 | 51.38306 | -2.71122 | 766 ft | 151 kts | 86° |
| 2026-04-21 18:05 | 51.38360 | -2.69315 | 1436 ft | 173 kts | 88° |
| 2026-04-21 18:05 | 51.38359 | -2.67307 | 2256 ft | 186 kts | 91° |
| 2026-04-21 18:05 | 51.38295 | -2.65184 | 2998 ft | 195 kts | 93° |
| 2026-04-21 18:06 | 51.38152 | -2.62967 | 3805 ft | 201 kts | 96° |
| 2026-04-21 18:06 | 51.37762 | -2.60809 | 4671 ft | 208 kts | 117° |
| 2026-04-21 18:06 | 51.36741 | -2.59106 | 5493 ft | 223 kts | 143° |
| 2026-04-21 18:06 | 51.35157 | -2.58366 | 5991 ft | 258 kts | 175° |
| 2026-04-21 18:07 | 51.33391 | -2.59280 | 6446 ft | 282 kts | 212° |
| 2026-04-21 18:07 | 51.32227 | -2.61865 | 6837 ft | 297 kts | 250° |
| 2026-04-21 18:07 | 51.32105 | -2.65132 | 7217 ft | 300 kts | 284° |
| 2026-04-21 18:07 | 51.32769 | -2.68286 | 7733 ft | 299 kts | 285° |
| 2026-04-21 18:08 | 51.33039 | -2.71611 | 8186 ft | 305 kts | 265° |
| 2026-04-21 18:08 | 51.32675 | -2.74936 | 8231 ft | 304 kts | 256° |
| 2026-04-21 18:08 | 51.32223 | -2.78225 | 8234 ft | 302 kts | 256° |
| 2026-04-21 18:08 | 51.31741 | -2.81627 | 8370 ft | 315 kts | 256° |
| 2026-04-21 18:09 | 51.31279 | -2.84911 | 9460 ft | 306 kts | 256° |
| 2026-04-21 18:09 | 51.30819 | -2.88240 | 10391 ft | 308 kts | 257° |
| 2026-04-21 18:09 | 51.30507 | -2.90519 | 10866 ft | 314 kts | 257° |
| 2026-04-21 18:09 | 51.29865 | -2.95243 | 11184 ft | 339 kts | 257° |
| 2026-04-21 18:10 | 51.29330 | -2.98920 | 11235 ft | 341 kts | 253° |
| 2026-04-21 18:10 | 51.28444 | -3.02402 | 11235 ft | 338 kts | 242° |
| 2026-04-21 18:10 | 51.27366 | -3.05821 | 11231 ft | 340 kts | 242° |
| 2026-04-21 18:10 | 51.26298 | -3.09208 | 11232 ft | 342 kts | 242° |
| 2026-04-21 18:11 | 51.25233 | -3.12589 | 11231 ft | 341 kts | 243° |
| 2026-04-21 18:11 | 51.24170 | -3.15962 | 11232 ft | 339 kts | 243° |
| 2026-04-21 18:11 | 51.23109 | -3.19329 | 11231 ft | 340 kts | 243° |
| 2026-04-21 18:11 | 51.22042 | -3.22711 | 11231 ft | 343 kts | 243° |
| 2026-04-21 18:12 | 51.21334 | -3.24953 | 11229 ft | 341 kts | 242° |
| 2026-04-21 18:12 | 51.20267 | -3.28323 | 11227 ft | 340 kts | 243° |
| 2026-04-21 18:12 | 51.19211 | -3.31673 | 11230 ft | 340 kts | 243° |
| 2026-04-21 18:12 | 51.18129 | -3.35096 | 11233 ft | 339 kts | 242° |
| 2026-04-21 18:13 | 51.16863 | -3.38265 | 11236 ft | 339 kts | 234° |
| 2026-04-21 18:13 | 51.15515 | -3.41342 | 11240 ft | 338 kts | 234° |
| 2026-04-21 18:13 | 51.14172 | -3.44408 | 11238 ft | 338 kts | 234° |
| 2026-04-21 18:13 | 51.12816 | -3.47480 | 11233 ft | 341 kts | 234° |
| 2026-04-21 18:14 | 51.10236 | -3.53781 | 11235 ft | 337 kts | 239° |
| 2026-04-21 18:14 | 51.09076 | -3.57021 | 11231 ft | 337 kts | 240° |
| 2026-04-21 18:14 | 51.07940 | -3.60273 | 11227 ft | 337 kts | 240° |
| 2026-04-21 18:15 | 51.06800 | -3.63549 | 11227 ft | 337 kts | 241° |
| 2026-04-21 18:15 | 51.05664 | -3.66812 | 11226 ft | 336 kts | 240° |
| 2026-04-21 18:15 | 51.04530 | -3.70050 | 11224 ft | 336 kts | 240° |
| 2026-04-21 18:15 | 51.03384 | -3.73293 | 11227 ft | 337 kts | 240° |
| 2026-04-21 18:16 | 51.02233 | -3.76533 | 11226 ft | 337 kts | 240° |
| 2026-04-21 18:16 | 51.01079 | -3.79774 | 11220 ft | 336 kts | 240° |
| 2026-04-21 18:16 | 50.99941 | -3.82965 | 11214 ft | 326 kts | 240° |
| 2026-04-21 18:16 | 50.98848 | -3.86023 | 11205 ft | 311 kts | 240° |
| 2026-04-21 18:17 | 50.97785 | -3.88999 | 11202 ft | 302 kts | 240° |
| 2026-04-21 18:17 | 50.96754 | -3.91889 | 11201 ft | 300 kts | 240° |
| 2026-04-21 18:17 | 50.95727 | -3.94758 | 11202 ft | 298 kts | 240° |
| 2026-04-21 18:17 | 50.94700 | -3.97624 | 11202 ft | 299 kts | 240° |
| 2026-04-21 18:18 | 50.93670 | -4.00493 | 11202 ft | 301 kts | 239° |
| 2026-04-21 18:18 | 50.92634 | -4.03379 | 11201 ft | 301 kts | 240° |
| 2026-04-21 18:18 | 50.91601 | -4.06255 | 11201 ft | 300 kts | 240° |
| 2026-04-21 18:18 | 50.90577 | -4.09109 | 11078 ft | 297 kts | 239° |
| 2026-04-21 18:19 | 50.89554 | -4.11952 | 10779 ft | 296 kts | 239° |
| 2026-04-21 18:19 | 50.88526 | -4.14799 | 10527 ft | 299 kts | 239° |
| 2026-04-21 18:19 | 50.87490 | -4.17663 | 10285 ft | 299 kts | 239° |
| 2026-04-21 18:19 | 50.86456 | -4.20521 | 10094 ft | 298 kts | 239° |
| 2026-04-21 18:20 | 50.85430 | -4.23351 | 9969 ft | 297 kts | 238° |
| 2026-04-21 18:20 | 50.84398 | -4.26190 | 9832 ft | 297 kts | 238° |
| 2026-04-21 18:20 | 50.83368 | -4.29028 | 9701 ft | 297 kts | 238° |
| 2026-04-21 18:20 | 50.82344 | -4.31857 | 9569 ft | 296 kts | 238° |
| 2026-04-21 18:21 | 50.81325 | -4.34675 | 9432 ft | 295 kts | 238° |
| 2026-04-21 18:21 | 50.80308 | -4.37484 | 9298 ft | 295 kts | 238° |
| 2026-04-21 18:21 | 50.79286 | -4.40284 | 9177 ft | 294 kts | 237° |
| 2026-04-21 18:21 | 50.78255 | -4.43101 | 9042 ft | 297 kts | 237° |
| 2026-04-21 18:22 | 50.77216 | -4.45941 | 8915 ft | 294 kts | 237° |
| 2026-04-21 18:22 | 50.76208 | -4.48692 | 8771 ft | 291 kts | 238° |
| 2026-04-21 18:22 | 50.75194 | -4.51459 | 8649 ft | 292 kts | 238° |
| 2026-04-21 18:22 | 50.74166 | -4.54272 | 8515 ft | 292 kts | 237° |
| 2026-04-21 18:23 | 50.73143 | -4.57060 | 8383 ft | 293 kts | 237° |
| 2026-04-21 18:23 | 50.72129 | -4.59825 | 8264 ft | 291 kts | 237° |
| 2026-04-21 18:23 | 50.71120 | -4.62572 | 8134 ft | 287 kts | 238° |
| 2026-04-21 18:23 | 50.70116 | -4.65304 | 8006 ft | 289 kts | 237° |
| 2026-04-21 18:24 | 50.69106 | -4.68045 | 7758 ft | 290 kts | 237° |
| 2026-04-21 18:24 | 50.68089 | -4.70800 | 7402 ft | 291 kts | 237° |
| 2026-04-21 18:24 | 50.67078 | -4.73537 | 7099 ft | 289 kts | 237° |
| 2026-04-21 18:24 | 50.66069 | -4.76271 | 6835 ft | 286 kts | 237° |
| 2026-04-21 18:25 | 50.65072 | -4.78967 | 6564 ft | 283 kts | 237° |
| 2026-04-21 18:25 | 50.64084 | -4.81633 | 6256 ft | 282 kts | 237° |
| 2026-04-21 18:25 | 50.63115 | -4.84248 | 6066 ft | 268 kts | 237° |
| 2026-04-21 18:25 | 50.62210 | -4.86698 | 5894 ft | 251 kts | 237° |
| 2026-04-21 18:26 | 50.61358 | -4.89001 | 5712 ft | 237 kts | 236° |
| 2026-04-21 18:26 | 50.60537 | -4.91215 | 5305 ft | 234 kts | 236° |
| 2026-04-21 18:26 | 50.59712 | -4.93425 | 4850 ft | 235 kts | 235° |
| 2026-04-21 18:26 | 50.58882 | -4.95645 | 4381 ft | 235 kts | 234° |
| 2026-04-21 18:27 | 50.58054 | -4.97860 | 3932 ft | 235 kts | 234° |
| 2026-04-21 18:27 | 50.57225 | -5.00076 | 3513 ft | 235 kts | 234° |
| 2026-04-21 18:27 | 50.56400 | -5.02281 | 3109 ft | 233 kts | 234° |
| 2026-04-21 18:27 | 50.55604 | -5.04415 | 2969 ft | 216 kts | 235° |
| 2026-04-21 18:28 | 50.54867 | -5.06399 | 2579 ft | 207 kts | 234° |
| 2026-04-21 18:28 | 50.54137 | -5.08346 | 2085 ft | 205 kts | 234° |
| 2026-04-21 18:28 | 50.53414 | -5.10270 | 2020 ft | 205 kts | 234° |
| 2026-04-21 18:28 | 50.52612 | -5.12099 | 2012 ft | 196 kts | 216° |
| 2026-04-21 18:29 | 50.51566 | -5.13101 | 1999 ft | 163 kts | 187° |
| 2026-04-21 18:29 | 50.50541 | -5.13309 | 2011 ft | 139 kts | 163° |
| 2026-04-21 18:29 | 50.49659 | -5.12972 | 1986 ft | 125 kts | 144° |
| 2026-04-21 18:29 | 50.48952 | -5.12235 | 1908 ft | 122 kts | 128° |
| 2026-04-21 18:30 | 50.48444 | -5.11173 | 1782 ft | 124 kts | 115° |
| 2026-04-21 18:30 | 50.48000 | -5.09989 | 1640 ft | 127 kts | 116° |
| 2026-04-21 18:30 | 50.47541 | -5.08764 | 1460 ft | 128 kts | 116° |
| 2026-04-21 18:30 | 50.47091 | -5.07566 | 1287 ft | 127 kts | 116° |
| 2026-04-21 18:31 | 50.46643 | -5.06372 | 1106 ft | 127 kts | 116° |
| 2026-04-21 18:31 | 50.46197 | -5.05182 | 922 ft | 127 kts | 117° |
| 2026-04-21 18:31 | 50.45754 | -5.03975 | 684 ft | 127 kts | 117° |
| 2026-04-21 18:31 | 50.45296 | -5.02789 | 522 ft | 127 kts | 117° |
| 2026-04-21 18:32 | 50.44854 | -5.01585 | 409 ft | 127 kts | 118° |
| 2026-04-21 18:32 | 50.44404 | -5.00424 | 335 ft | 114 kts | 117° |
| 2026-04-21 18:32 | 50.44174 | -4.99787 | 351 ft | 17 kts | 120° |
| 2026-04-21 18:32 | 50.44160 | -4.99748 | 350 ft | 0 kts | 120° |
| 2026-04-21 18:33 | 50.44123 | -4.99650 | 350 ft | 14 kts | 121° |
| 2026-04-21 18:33 | 50.44091 | -4.99529 | 355 ft | 10 kts | 79° |
| 2026-04-21 18:33 | 50.44155 | -4.99492 | 358 ft | 13 kts | 3° |
| 2026-04-21 18:33 | 50.44276 | -4.99532 | 355 ft | 20 kts | 316° |
| 2026-04-21 18:34 | 50.44360 | -4.99740 | 346 ft | 21 kts | 300° |
| 2026-04-21 18:34 | 50.44435 | -4.99946 | 335 ft | 18 kts | 300° |
| 2026-04-21 18:34 | 50.44506 | -5.00138 | 332 ft | 19 kts | 300° |
| 2026-04-21 18:34 | 50.44564 | -5.00294 | 325 ft | 17 kts | 300° |
| 2026-04-21 18:35 | 50.44599 | -5.00392 | 325 ft | 15 kts | 299° |
| 2026-04-21 18:35 | 50.44649 | -5.00413 | 324 ft | 3 kts | 84° |
| 2026-04-21 18:35 | 50.44652 | -5.00393 | 327 ft | 0 kts | 76° |
| 2026-04-21 18:36 | 50.44652 | -5.00392 | 327 ft | 0 kts | 76° |